OVO730D ZPPP-ZGHA
Flight info
| Callsign | OVO730D |
|---|---|
| Flight time | 1h 37m |
| Altitude | 37100 |
| Route | NOD9Z NODIB W137 LPS A581 NOMUK W194 LLC W138 RUKLI RUK1W |
| Aircraft | A20N/M-SDE2E3FGHIRWXY/LB1 |
Departure
| Time | 2026-05-04 12:16 |
|---|---|
| Airport | Kunming Changshui International Airport (ZPPP) |
Arrival
| Time | 2026-05-04 13:53 |
|---|---|
| Airport | Changsha Huanghua International Airport (ZGHA) |
| Time | Latitude | Longitude | Altitude | Speed | Heading |
|---|---|---|---|---|---|
| 2026-05-04 11:16 | 25.10394 | 102.93251 | 6898 ft | 0 kts | 187° |
| 2026-05-04 12:00 | 25.10397 | 102.93252 | 6898 ft | 1 kts | 187° |
| 2026-05-04 12:00 | 25.10415 | 102.93255 | 6898 ft | 3 kts | 188° |
| 2026-05-04 12:00 | 25.10435 | 102.93258 | 6898 ft | 3 kts | 189° |
| 2026-05-04 12:00 | 25.10455 | 102.93262 | 6898 ft | 3 kts | 190° |
| 2026-05-04 12:01 | 25.10475 | 102.93266 | 6898 ft | 3 kts | 192° |
| 2026-05-04 12:01 | 25.10495 | 102.93271 | 6898 ft | 3 kts | 194° |
| 2026-05-04 12:02 | 25.10532 | 102.93301 | 6898 ft | 0 kts | 308° |
| 2026-05-04 12:04 | 25.10534 | 102.93298 | 6898 ft | 2 kts | 308° |
| 2026-05-04 12:05 | 25.10553 | 102.93272 | 6898 ft | 7 kts | 308° |
| 2026-05-04 12:05 | 25.10590 | 102.93219 | 6899 ft | 10 kts | 308° |
| 2026-05-04 12:05 | 25.10634 | 102.93159 | 6900 ft | 11 kts | 309° |
| 2026-05-04 12:05 | 25.10686 | 102.93098 | 6901 ft | 11 kts | 328° |
| 2026-05-04 12:06 | 25.10761 | 102.93069 | 6901 ft | 12 kts | 341° |
| 2026-05-04 12:06 | 25.10832 | 102.93030 | 6902 ft | 12 kts | 317° |
| 2026-05-04 12:06 | 25.10883 | 102.92961 | 6902 ft | 12 kts | 308° |
| 2026-05-04 12:06 | 25.10935 | 102.92888 | 6903 ft | 10 kts | 308° |
| 2026-05-04 12:07 | 25.10980 | 102.92823 | 6905 ft | 11 kts | 308° |
| 2026-05-04 12:07 | 25.11029 | 102.92754 | 6917 ft | 12 kts | 308° |
| 2026-05-04 12:07 | 25.11095 | 102.92704 | 6904 ft | 12 kts | 6° |
| 2026-05-04 12:07 | 25.11169 | 102.92760 | 6908 ft | 14 kts | 39° |
| 2026-05-04 12:08 | 25.11248 | 102.92830 | 6910 ft | 15 kts | 37° |
| 2026-05-04 12:08 | 25.11339 | 102.92905 | 6903 ft | 17 kts | 36° |
| 2026-05-04 12:08 | 25.11437 | 102.92988 | 6903 ft | 19 kts | 39° |
| 2026-05-04 12:08 | 25.11534 | 102.93073 | 6903 ft | 16 kts | 38° |
| 2026-05-04 12:09 | 25.11621 | 102.93151 | 6902 ft | 17 kts | 39° |
| 2026-05-04 12:09 | 25.11715 | 102.93232 | 6901 ft | 18 kts | 38° |
| 2026-05-04 12:09 | 25.11805 | 102.93310 | 6901 ft | 15 kts | 38° |
| 2026-05-04 12:09 | 25.11893 | 102.93386 | 6900 ft | 17 kts | 38° |
| 2026-05-04 12:10 | 25.11986 | 102.93468 | 6900 ft | 15 kts | 38° |
| 2026-05-04 12:10 | 25.12065 | 102.93537 | 6899 ft | 15 kts | 38° |
| 2026-05-04 12:10 | 25.12153 | 102.93614 | 6899 ft | 17 kts | 38° |
| 2026-05-04 12:10 | 25.12250 | 102.93698 | 6899 ft | 18 kts | 38° |
| 2026-05-04 12:11 | 25.12351 | 102.93786 | 6898 ft | 19 kts | 38° |
| 2026-05-04 12:11 | 25.12459 | 102.93880 | 6898 ft | 20 kts | 39° |
| 2026-05-04 12:11 | 25.12573 | 102.93981 | 6897 ft | 19 kts | 37° |
| 2026-05-04 12:11 | 25.12683 | 102.94074 | 6896 ft | 18 kts | 38° |
| 2026-05-04 12:12 | 25.12757 | 102.94139 | 6896 ft | 8 kts | 38° |
| 2026-05-04 12:12 | 25.12792 | 102.94146 | 6896 ft | 4 kts | 341° |
| 2026-05-04 12:12 | 25.12815 | 102.94119 | 6896 ft | 0 kts | 307° |
| 2026-05-04 12:14 | 25.12823 | 102.93956 | 6894 ft | 0 kts | 216° |
| 2026-05-04 12:15 | 25.12789 | 102.93929 | 6895 ft | 17 kts | 217° |
| 2026-05-04 12:15 | 25.12543 | 102.93718 | 6898 ft | 76 kts | 218° |
| 2026-05-04 12:15 | 25.11983 | 102.93226 | 6899 ft | 128 kts | 219° |
| 2026-05-04 12:15 | 25.11171 | 102.92523 | 6916 ft | 168 kts | 217° |
| 2026-05-04 12:16 | 25.10177 | 102.91664 | 7084 ft | 188 kts | 218° |
| 2026-05-04 12:16 | 25.09213 | 102.90656 | 7581 ft | 195 kts | 230° |
| 2026-05-04 12:16 | 25.08424 | 102.89433 | 8215 ft | 198 kts | 238° |
| 2026-05-04 12:16 | 25.07652 | 102.88165 | 8797 ft | 199 kts | 237° |
| 2026-05-04 12:17 | 25.06844 | 102.86917 | 9375 ft | 201 kts | 236° |
| 2026-05-04 12:17 | 25.06003 | 102.85670 | 9970 ft | 204 kts | 236° |
| 2026-05-04 12:17 | 25.05181 | 102.84435 | 10679 ft | 198 kts | 237° |
| 2026-05-04 12:17 | 25.04391 | 102.83218 | 11416 ft | 194 kts | 238° |
| 2026-05-04 12:18 | 25.03584 | 102.81977 | 11862 ft | 209 kts | 237° |
| 2026-05-04 12:18 | 25.02699 | 102.80624 | 12342 ft | 225 kts | 237° |
| 2026-05-04 12:18 | 25.01770 | 102.79215 | 13108 ft | 231 kts | 237° |
| 2026-05-04 12:18 | 25.00788 | 102.77740 | 13653 ft | 246 kts | 237° |
| 2026-05-04 12:19 | 24.99595 | 102.76299 | 14136 ft | 267 kts | 219° |
| 2026-05-04 12:19 | 24.97864 | 102.75480 | 14614 ft | 282 kts | 194° |
| 2026-05-04 12:19 | 24.95833 | 102.75564 | 15011 ft | 304 kts | 167° |
| 2026-05-04 12:19 | 24.93933 | 102.76646 | 15609 ft | 315 kts | 142° |
| 2026-05-04 12:20 | 24.92500 | 102.78505 | 16233 ft | 323 kts | 123° |
| 2026-05-04 12:20 | 24.91405 | 102.80648 | 16835 ft | 328 kts | 119° |
| 2026-05-04 12:20 | 24.90340 | 102.82891 | 17437 ft | 333 kts | 120° |
| 2026-05-04 12:20 | 24.89217 | 102.85138 | 18035 ft | 336 kts | 122° |
| 2026-05-04 12:21 | 24.88032 | 102.87369 | 18648 ft | 340 kts | 123° |
| 2026-05-04 12:21 | 24.86795 | 102.89608 | 19151 ft | 343 kts | 124° |
| 2026-05-04 12:21 | 24.85532 | 102.91851 | 19669 ft | 347 kts | 124° |
| 2026-05-04 12:21 | 24.84225 | 102.94153 | 19846 ft | 363 kts | 124° |
| 2026-05-04 12:22 | 24.82965 | 102.96632 | 19993 ft | 381 kts | 113° |
| 2026-05-04 12:22 | 24.82306 | 102.99513 | 20135 ft | 398 kts | 94° |
| 2026-05-04 12:22 | 24.82452 | 103.02553 | 20274 ft | 410 kts | 75° |
| 2026-05-04 12:22 | 24.83445 | 103.05524 | 20409 ft | 418 kts | 57° |
| 2026-05-04 12:23 | 24.85191 | 103.08093 | 20604 ft | 422 kts | 40° |
| 2026-05-04 12:23 | 24.87475 | 103.10093 | 21069 ft | 419 kts | 30° |
| 2026-05-04 12:23 | 24.89900 | 103.11882 | 21604 ft | 420 kts | 28° |
| 2026-05-04 12:23 | 24.92360 | 103.13659 | 22028 ft | 425 kts | 28° |
| 2026-05-04 12:24 | 24.94824 | 103.15471 | 22526 ft | 428 kts | 29° |
| 2026-05-04 12:24 | 24.97290 | 103.17325 | 22995 ft | 431 kts | 30° |
| 2026-05-04 12:24 | 24.99764 | 103.19211 | 23472 ft | 434 kts | 30° |
| 2026-05-04 12:24 | 25.02219 | 103.21096 | 23909 ft | 437 kts | 30° |
| 2026-05-04 12:25 | 25.04718 | 103.23020 | 24302 ft | 440 kts | 30° |
| 2026-05-04 12:25 | 25.07239 | 103.24965 | 24679 ft | 443 kts | 30° |
| 2026-05-04 12:25 | 25.09774 | 103.26920 | 25050 ft | 446 kts | 30° |
| 2026-05-04 12:25 | 25.12317 | 103.28882 | 25427 ft | 448 kts | 30° |
| 2026-05-04 12:26 | 25.14882 | 103.30859 | 25780 ft | 451 kts | 30° |
| 2026-05-04 12:26 | 25.17461 | 103.32850 | 26134 ft | 454 kts | 29° |
| 2026-05-04 12:26 | 25.20053 | 103.34851 | 26482 ft | 457 kts | 29° |
| 2026-05-04 12:26 | 25.22663 | 103.36868 | 26826 ft | 459 kts | 29° |
| 2026-05-04 12:27 | 25.25252 | 103.38868 | 27173 ft | 462 kts | 29° |
| 2026-05-04 12:27 | 25.27888 | 103.40906 | 27503 ft | 464 kts | 29° |
| 2026-05-04 12:27 | 25.30541 | 103.42956 | 27802 ft | 467 kts | 29° |
| 2026-05-04 12:27 | 25.33211 | 103.45022 | 28140 ft | 469 kts | 28° |
| 2026-05-04 12:28 | 25.35893 | 103.47098 | 28460 ft | 471 kts | 28° |
| 2026-05-04 12:28 | 25.38571 | 103.49199 | 28754 ft | 477 kts | 32° |
| 2026-05-04 12:28 | 25.41010 | 103.51747 | 29061 ft | 489 kts | 44° |
| 2026-05-04 12:28 | 25.43166 | 103.54695 | 29332 ft | 495 kts | 47° |
| 2026-05-04 12:29 | 25.45249 | 103.57733 | 29614 ft | 498 kts | 47° |
| 2026-05-04 12:29 | 25.47347 | 103.60788 | 29883 ft | 500 kts | 47° |
| 2026-05-04 12:29 | 25.49452 | 103.63803 | 30168 ft | 502 kts | 46° |
| 2026-05-04 12:29 | 25.51611 | 103.66855 | 30410 ft | 505 kts | 46° |
| 2026-05-04 12:30 | 25.53787 | 103.69907 | 30665 ft | 506 kts | 46° |
| 2026-05-04 12:30 | 25.55973 | 103.72966 | 30913 ft | 508 kts | 46° |
| 2026-05-04 12:30 | 25.58172 | 103.76042 | 31184 ft | 509 kts | 46° |
| 2026-05-04 12:30 | 25.60371 | 103.79121 | 31486 ft | 510 kts | 46° |
| 2026-05-04 12:31 | 25.62565 | 103.82196 | 31831 ft | 509 kts | 46° |
| 2026-05-04 12:31 | 25.64749 | 103.85258 | 32172 ft | 508 kts | 46° |
| 2026-05-04 12:31 | 25.66947 | 103.88341 | 32510 ft | 507 kts | 46° |
| 2026-05-04 12:31 | 25.69105 | 103.91371 | 32846 ft | 506 kts | 46° |
| 2026-05-04 12:32 | 25.71285 | 103.94434 | 33156 ft | 505 kts | 45° |
| 2026-05-04 12:32 | 25.75633 | 104.00549 | 33752 ft | 504 kts | 45° |
| 2026-05-04 12:32 | 25.77799 | 104.03598 | 34041 ft | 503 kts | 45° |
| 2026-05-04 12:33 | 25.79928 | 104.06675 | 34295 ft | 505 kts | 49° |
| 2026-05-04 12:33 | 25.81862 | 104.09947 | 34529 ft | 506 kts | 51° |
| 2026-05-04 12:33 | 25.83748 | 104.13165 | 34752 ft | 505 kts | 51° |
| 2026-05-04 12:33 | 25.85666 | 104.16427 | 34962 ft | 504 kts | 51° |
| 2026-05-04 12:34 | 25.87583 | 104.19686 | 35180 ft | 504 kts | 51° |
| 2026-05-04 12:34 | 25.89495 | 104.22940 | 35400 ft | 503 kts | 51° |
| 2026-05-04 12:34 | 25.91405 | 104.26198 | 35620 ft | 502 kts | 51° |
| 2026-05-04 12:34 | 25.93307 | 104.29442 | 35836 ft | 502 kts | 51° |
| 2026-05-04 12:35 | 25.95209 | 104.32692 | 36059 ft | 501 kts | 51° |
| 2026-05-04 12:35 | 25.97108 | 104.35936 | 36270 ft | 501 kts | 51° |
| 2026-05-04 12:35 | 25.98978 | 104.39135 | 36481 ft | 500 kts | 51° |
| 2026-05-04 12:35 | 26.00890 | 104.42351 | 36705 ft | 497 kts | 48° |
| 2026-05-04 12:36 | 26.03027 | 104.45328 | 36887 ft | 490 kts | 41° |
| 2026-05-04 12:36 | 26.05415 | 104.47995 | 37110 ft | 482 kts | 34° |
| 2026-05-04 12:36 | 26.07972 | 104.50388 | 37218 ft | 480 kts | 32° |
| 2026-05-04 12:37 | 26.13063 | 104.55101 | 37217 ft | 479 kts | 32° |
| 2026-05-04 12:37 | 26.18174 | 104.59854 | 37209 ft | 478 kts | 32° |
| 2026-05-04 12:38 | 26.23291 | 104.64612 | 37209 ft | 479 kts | 32° |
| 2026-05-04 12:38 | 26.28370 | 104.69344 | 37204 ft | 479 kts | 32° |
| 2026-05-04 12:39 | 26.33481 | 104.74107 | 37200 ft | 478 kts | 32° |
| 2026-05-04 12:39 | 26.38581 | 104.78866 | 37189 ft | 478 kts | 32° |
| 2026-05-04 12:40 | 26.43697 | 104.83646 | 37190 ft | 480 kts | 32° |
| 2026-05-04 12:40 | 26.48565 | 104.88202 | 37183 ft | 479 kts | 32° |
| 2026-05-04 12:41 | 26.53670 | 104.92985 | 37183 ft | 480 kts | 32° |
| 2026-05-04 12:41 | 26.58778 | 104.97777 | 37172 ft | 479 kts | 32° |
| 2026-05-04 12:42 | 26.63350 | 105.02901 | 37165 ft | 490 kts | 45° |
| 2026-05-04 12:42 | 26.66952 | 105.09480 | 37170 ft | 506 kts | 60° |
| 2026-05-04 12:43 | 26.69814 | 105.16640 | 37170 ft | 507 kts | 59° |
| 2026-05-04 12:43 | 26.72716 | 105.23843 | 37172 ft | 509 kts | 59° |
| 2026-05-04 12:44 | 26.75608 | 105.31058 | 37182 ft | 508 kts | 60° |
| 2026-05-04 12:44 | 26.78493 | 105.38269 | 37181 ft | 510 kts | 59° |
| 2026-05-04 12:45 | 26.81343 | 105.45396 | 37183 ft | 510 kts | 59° |
| 2026-05-04 12:45 | 26.84229 | 105.52634 | 37185 ft | 509 kts | 60° |
| 2026-05-04 12:46 | 26.87116 | 105.59887 | 37189 ft | 510 kts | 60° |
| 2026-05-04 12:46 | 26.90007 | 105.67162 | 37187 ft | 510 kts | 60° |
| 2026-05-04 12:47 | 26.92862 | 105.74364 | 37191 ft | 510 kts | 60° |
| 2026-05-04 12:47 | 26.95744 | 105.81639 | 37192 ft | 511 kts | 60° |
| 2026-05-04 12:48 | 26.98616 | 105.88910 | 37198 ft | 511 kts | 60° |
| 2026-05-04 12:48 | 27.01493 | 105.96202 | 37197 ft | 511 kts | 60° |
| 2026-05-04 12:49 | 27.04345 | 106.03445 | 37195 ft | 511 kts | 59° |
| 2026-05-04 12:49 | 27.07496 | 106.10530 | 37192 ft | 506 kts | 55° |
| 2026-05-04 12:50 | 27.10773 | 106.17507 | 37204 ft | 506 kts | 55° |
| 2026-05-04 12:50 | 27.14004 | 106.24525 | 37179 ft | 505 kts | 56° |
| 2026-05-04 12:51 | 27.17219 | 106.31576 | 37192 ft | 509 kts | 56° |
| 2026-05-04 12:51 | 27.20416 | 106.38614 | 37197 ft | 508 kts | 56° |
| 2026-05-04 12:52 | 27.23623 | 106.45676 | 37198 ft | 509 kts | 56° |
| 2026-05-04 12:52 | 27.26843 | 106.52768 | 37183 ft | 509 kts | 56° |
| 2026-05-04 12:53 | 27.30056 | 106.59871 | 37193 ft | 507 kts | 55° |
| 2026-05-04 12:53 | 27.33240 | 106.66903 | 37201 ft | 510 kts | 56° |
| 2026-05-04 12:54 | 27.36450 | 106.74015 | 37201 ft | 510 kts | 56° |
| 2026-05-04 12:54 | 27.39654 | 106.81148 | 37193 ft | 510 kts | 56° |
| 2026-05-04 12:55 | 27.42836 | 106.88266 | 37191 ft | 509 kts | 56° |
| 2026-05-04 12:55 | 27.46000 | 106.95348 | 37186 ft | 510 kts | 56° |
| 2026-05-04 12:56 | 27.49160 | 107.02411 | 37175 ft | 508 kts | 56° |
| 2026-05-04 12:56 | 27.52375 | 107.09501 | 37173 ft | 508 kts | 56° |
| 2026-05-04 12:57 | 27.55592 | 107.16606 | 37187 ft | 511 kts | 56° |
| 2026-05-04 12:57 | 27.58809 | 107.23739 | 37185 ft | 510 kts | 56° |
| 2026-05-04 12:58 | 27.62020 | 107.30866 | 37179 ft | 511 kts | 56° |
| 2026-05-04 12:58 | 27.65215 | 107.37966 | 37180 ft | 511 kts | 56° |
| 2026-05-04 12:59 | 27.68428 | 107.45121 | 37178 ft | 511 kts | 56° |
| 2026-05-04 12:59 | 27.71628 | 107.52259 | 37163 ft | 510 kts | 56° |
| 2026-05-04 13:00 | 27.74822 | 107.59397 | 37159 ft | 509 kts | 56° |
| 2026-05-04 13:00 | 27.77989 | 107.66486 | 37152 ft | 509 kts | 56° |
| 2026-05-04 13:01 | 27.81171 | 107.73620 | 37147 ft | 509 kts | 56° |
| 2026-05-04 13:01 | 27.84375 | 107.80773 | 37163 ft | 512 kts | 55° |
| 2026-05-04 13:02 | 27.87655 | 107.87922 | 37158 ft | 512 kts | 55° |
| 2026-05-04 13:02 | 27.90903 | 107.95016 | 37146 ft | 511 kts | 55° |
| 2026-05-04 13:03 | 27.94165 | 108.02172 | 37153 ft | 513 kts | 55° |
| 2026-05-04 13:03 | 27.97117 | 108.08663 | 37145 ft | 513 kts | 55° |
| 2026-05-04 13:04 | 28.00377 | 108.15842 | 37150 ft | 512 kts | 55° |
| 2026-05-04 13:04 | 28.03630 | 108.23021 | 37148 ft | 512 kts | 55° |
| 2026-05-04 13:05 | 28.06891 | 108.30222 | 37148 ft | 516 kts | 55° |
| 2026-05-04 13:05 | 28.10156 | 108.37454 | 37158 ft | 514 kts | 55° |
| 2026-05-04 13:06 | 28.13388 | 108.44624 | 37157 ft | 515 kts | 55° |
| 2026-05-04 13:06 | 28.16643 | 108.51854 | 37151 ft | 516 kts | 56° |
| 2026-05-04 13:07 | 28.19911 | 108.59124 | 37146 ft | 518 kts | 56° |
| 2026-05-04 13:07 | 28.23167 | 108.66390 | 37150 ft | 516 kts | 56° |
| 2026-05-04 13:08 | 28.26402 | 108.73613 | 37149 ft | 517 kts | 56° |
| 2026-05-04 13:08 | 28.29658 | 108.80903 | 37150 ft | 518 kts | 56° |
| 2026-05-04 13:09 | 28.32909 | 108.88193 | 37145 ft | 519 kts | 56° |
| 2026-05-04 13:09 | 28.36165 | 108.95504 | 37145 ft | 520 kts | 56° |
| 2026-05-04 13:10 | 28.39429 | 109.02846 | 37144 ft | 520 kts | 56° |
| 2026-05-04 13:10 | 28.42655 | 109.10124 | 37142 ft | 519 kts | 56° |
| 2026-05-04 13:11 | 28.45901 | 109.17457 | 37155 ft | 520 kts | 56° |
| 2026-05-04 13:11 | 28.49146 | 109.24820 | 37151 ft | 521 kts | 56° |
| 2026-05-04 13:12 | 28.52386 | 109.32185 | 37140 ft | 521 kts | 56° |
| 2026-05-04 13:12 | 28.55605 | 109.39516 | 37145 ft | 521 kts | 56° |
| 2026-05-04 13:13 | 28.58704 | 109.46991 | 37137 ft | 527 kts | 63° |
| 2026-05-04 13:13 | 28.61352 | 109.54768 | 37127 ft | 527 kts | 62° |
| 2026-05-04 13:14 | 28.64015 | 109.62540 | 37133 ft | 528 kts | 62° |
| 2026-05-04 13:14 | 28.66702 | 109.70310 | 37134 ft | 527 kts | 61° |
| 2026-05-04 13:15 | 28.69471 | 109.77965 | 37132 ft | 527 kts | 61° |
| 2026-05-04 13:15 | 28.72255 | 109.85684 | 37133 ft | 527 kts | 61° |
| 2026-05-04 13:16 | 28.75026 | 109.93428 | 37133 ft | 528 kts | 62° |
| 2026-05-04 13:16 | 28.77787 | 110.01171 | 37137 ft | 528 kts | 62° |
| 2026-05-04 13:17 | 28.80530 | 110.08878 | 37127 ft | 528 kts | 62° |
| 2026-05-04 13:17 | 28.83288 | 110.16640 | 37134 ft | 528 kts | 62° |
| 2026-05-04 13:18 | 28.85940 | 110.24125 | 37137 ft | 528 kts | 62° |
| 2026-05-04 13:18 | 28.88690 | 110.31904 | 37136 ft | 528 kts | 62° |
| 2026-05-04 13:19 | 28.91415 | 110.39626 | 37134 ft | 526 kts | 62° |
| 2026-05-04 13:19 | 28.94153 | 110.47396 | 37130 ft | 530 kts | 62° |
| 2026-05-04 13:20 | 28.96897 | 110.55207 | 37135 ft | 530 kts | 62° |
| 2026-05-04 13:20 | 28.99633 | 110.63014 | 37138 ft | 530 kts | 62° |
| 2026-05-04 13:21 | 29.01781 | 110.70797 | 37131 ft | 539 kts | 78° |
| 2026-05-04 13:21 | 29.02025 | 110.75091 | 37129 ft | 544 kts | 91° |
| 2026-05-04 13:21 | 29.01636 | 110.79164 | 37123 ft | 546 kts | 102° |
| 2026-05-04 13:22 | 28.99953 | 110.87576 | 37120 ft | 545 kts | 103° |
| 2026-05-04 13:22 | 28.98257 | 110.96019 | 37121 ft | 545 kts | 103° |
| 2026-05-04 13:23 | 28.96575 | 111.04403 | 37122 ft | 546 kts | 103° |
| 2026-05-04 13:23 | 28.94878 | 111.12836 | 37113 ft | 546 kts | 103° |
| 2026-05-04 13:24 | 28.93166 | 111.21316 | 37115 ft | 546 kts | 104° |
| 2026-05-04 13:24 | 28.91454 | 111.29762 | 37110 ft | 546 kts | 104° |
| 2026-05-04 13:25 | 28.88875 | 111.42433 | 37112 ft | 547 kts | 104° |
| 2026-05-04 13:25 | 28.87161 | 111.50820 | 37113 ft | 547 kts | 104° |
| 2026-05-04 13:26 | 28.84929 | 111.58894 | 37097 ft | 541 kts | 121° |
| 2026-05-04 13:26 | 28.82979 | 111.62527 | 37091 ft | 533 kts | 133° |
| 2026-05-04 13:26 | 28.80536 | 111.65637 | 37089 ft | 522 kts | 145° |
| 2026-05-04 13:27 | 28.77723 | 111.68126 | 37088 ft | 510 kts | 155° |
| 2026-05-04 13:27 | 28.74721 | 111.70258 | 37090 ft | 507 kts | 158° |
| 2026-05-04 13:27 | 28.68743 | 111.74416 | 37096 ft | 508 kts | 156° |
| 2026-05-04 13:28 | 28.62787 | 111.78797 | 37096 ft | 510 kts | 155° |
| 2026-05-04 13:28 | 28.56888 | 111.83232 | 36738 ft | 507 kts | 155° |
| 2026-05-04 13:29 | 28.53951 | 111.85443 | 36142 ft | 507 kts | 155° |
| 2026-05-04 13:29 | 28.50999 | 111.87661 | 35420 ft | 509 kts | 155° |
| 2026-05-04 13:29 | 28.48039 | 111.89881 | 34650 ft | 512 kts | 155° |
| 2026-05-04 13:29 | 28.45095 | 111.92087 | 33813 ft | 516 kts | 155° |
| 2026-05-04 13:30 | 28.42096 | 111.94334 | 32913 ft | 518 kts | 155° |
| 2026-05-04 13:30 | 28.39132 | 111.96556 | 32063 ft | 518 kts | 155° |
| 2026-05-04 13:30 | 28.36129 | 111.98809 | 31221 ft | 517 kts | 155° |
| 2026-05-04 13:30 | 28.33136 | 112.01066 | 30409 ft | 515 kts | 155° |
| 2026-05-04 13:31 | 28.30148 | 112.03318 | 29438 ft | 515 kts | 155° |
| 2026-05-04 13:31 | 28.27182 | 112.05552 | 28641 ft | 511 kts | 155° |
| 2026-05-04 13:31 | 28.24274 | 112.07741 | 27953 ft | 504 kts | 155° |
| 2026-05-04 13:31 | 28.21373 | 112.09924 | 27309 ft | 498 kts | 154° |
| 2026-05-04 13:32 | 28.18502 | 112.12081 | 26582 ft | 493 kts | 154° |
| 2026-05-04 13:32 | 28.15663 | 112.14212 | 26018 ft | 486 kts | 154° |
| 2026-05-04 13:32 | 28.12852 | 112.16320 | 25363 ft | 482 kts | 154° |
| 2026-05-04 13:32 | 28.10077 | 112.18410 | 24765 ft | 478 kts | 152° |
| 2026-05-04 13:33 | 28.07492 | 112.20800 | 24158 ft | 482 kts | 142° |
| 2026-05-04 13:33 | 28.05244 | 112.23613 | 23572 ft | 484 kts | 133° |
| 2026-05-04 13:33 | 28.03340 | 112.26758 | 22946 ft | 481 kts | 128° |
| 2026-05-04 13:33 | 28.01523 | 112.29896 | 22346 ft | 474 kts | 128° |
| 2026-05-04 13:34 | 27.99869 | 112.33059 | 21746 ft | 473 kts | 118° |
| 2026-05-04 13:34 | 27.98774 | 112.36541 | 21185 ft | 470 kts | 105° |
| 2026-05-04 13:34 | 27.98310 | 112.40179 | 20646 ft | 465 kts | 95° |
| 2026-05-04 13:34 | 27.98097 | 112.43810 | 20100 ft | 459 kts | 95° |
| 2026-05-04 13:35 | 27.97882 | 112.47388 | 19575 ft | 452 kts | 95° |
| 2026-05-04 13:35 | 27.97453 | 112.54378 | 18547 ft | 440 kts | 95° |
| 2026-05-04 13:35 | 27.97239 | 112.57800 | 18002 ft | 433 kts | 95° |
| 2026-05-04 13:36 | 27.97027 | 112.61181 | 17435 ft | 427 kts | 94° |
| 2026-05-04 13:36 | 27.96820 | 112.64465 | 16872 ft | 421 kts | 94° |
| 2026-05-04 13:36 | 27.96614 | 112.67742 | 16305 ft | 415 kts | 94° |
| 2026-05-04 13:36 | 27.96408 | 112.70973 | 15767 ft | 409 kts | 94° |
| 2026-05-04 13:37 | 27.96206 | 112.74152 | 15234 ft | 403 kts | 94° |
| 2026-05-04 13:37 | 27.96005 | 112.77295 | 14708 ft | 398 kts | 94° |
| 2026-05-04 13:37 | 27.95807 | 112.80391 | 14186 ft | 392 kts | 94° |
| 2026-05-04 13:37 | 27.95611 | 112.83442 | 13680 ft | 386 kts | 94° |
| 2026-05-04 13:38 | 27.95514 | 112.86458 | 13045 ft | 382 kts | 85° |
| 2026-05-04 13:38 | 27.96118 | 112.89361 | 12419 ft | 378 kts | 66° |
| 2026-05-04 13:38 | 27.97481 | 112.91866 | 11817 ft | 373 kts | 48° |
| 2026-05-04 13:38 | 27.99428 | 112.93698 | 11243 ft | 369 kts | 30° |
| 2026-05-04 13:39 | 28.01695 | 112.95012 | 10699 ft | 365 kts | 24° |
| 2026-05-04 13:39 | 28.03959 | 112.96189 | 10496 ft | 350 kts | 24° |
| 2026-05-04 13:39 | 28.06121 | 112.97334 | 10370 ft | 336 kts | 25° |
| 2026-05-04 13:39 | 28.08174 | 112.98468 | 10251 ft | 322 kts | 26° |
| 2026-05-04 13:40 | 28.10135 | 112.99587 | 10131 ft | 309 kts | 26° |
| 2026-05-04 13:40 | 28.12007 | 113.00674 | 9943 ft | 299 kts | 26° |
| 2026-05-04 13:40 | 28.13759 | 113.01887 | 9551 ft | 297 kts | 36° |
| 2026-05-04 13:40 | 28.15291 | 113.03448 | 9129 ft | 296 kts | 46° |
| 2026-05-04 13:41 | 28.16690 | 113.05124 | 8726 ft | 295 kts | 46° |
| 2026-05-04 13:41 | 28.18105 | 113.06793 | 8333 ft | 293 kts | 45° |
| 2026-05-04 13:41 | 28.19515 | 113.08449 | 7942 ft | 291 kts | 45° |
| 2026-05-04 13:42 | 28.21887 | 113.12087 | 7147 ft | 289 kts | 70° |
| 2026-05-04 13:42 | 28.22316 | 113.14301 | 6761 ft | 287 kts | 81° |
| 2026-05-04 13:42 | 28.22632 | 113.16533 | 6387 ft | 286 kts | 81° |
| 2026-05-04 13:42 | 28.22932 | 113.18599 | 6035 ft | 284 kts | 81° |
| 2026-05-04 13:43 | 28.23248 | 113.20754 | 5760 ft | 278 kts | 81° |
| 2026-05-04 13:43 | 28.23565 | 113.22896 | 5485 ft | 273 kts | 82° |
| 2026-05-04 13:43 | 28.23877 | 113.24995 | 5217 ft | 267 kts | 82° |
| 2026-05-04 13:43 | 28.24182 | 113.27055 | 4952 ft | 262 kts | 82° |
| 2026-05-04 13:44 | 28.24480 | 113.29075 | 4692 ft | 258 kts | 82° |
| 2026-05-04 13:44 | 28.24778 | 113.31061 | 4435 ft | 253 kts | 79° |
| 2026-05-04 13:44 | 28.25501 | 113.32846 | 4187 ft | 251 kts | 52° |
| 2026-05-04 13:44 | 28.26854 | 113.34060 | 3925 ft | 252 kts | 25° |
| 2026-05-04 13:45 | 28.28670 | 113.34488 | 3674 ft | 290 kts | 1° |
| 2026-05-04 13:45 | 28.30724 | 113.34459 | 3608 ft | 297 kts | 359° |
| 2026-05-04 13:45 | 28.32765 | 113.34377 | 3564 ft | 291 kts | 358° |
| 2026-05-04 13:45 | 28.34760 | 113.34297 | 3474 ft | 280 kts | 359° |
| 2026-05-04 13:46 | 28.36664 | 113.34232 | 3365 ft | 268 kts | 359° |
| 2026-05-04 13:46 | 28.38491 | 113.34107 | 3252 ft | 257 kts | 347° |
| 2026-05-04 13:46 | 28.40042 | 113.33236 | 3145 ft | 245 kts | 316° |
| 2026-05-04 13:46 | 28.40941 | 113.31684 | 3035 ft | 232 kts | 284° |
| 2026-05-04 13:47 | 28.41032 | 113.29931 | 2998 ft | 229 kts | 263° |
| 2026-05-04 13:47 | 28.40865 | 113.28125 | 2980 ft | 225 kts | 261° |
| 2026-05-04 13:47 | 28.40707 | 113.26427 | 2978 ft | 209 kts | 262° |
| 2026-05-04 13:47 | 28.40586 | 113.24819 | 2990 ft | 206 kts | 263° |
| 2026-05-04 13:48 | 28.40486 | 113.23195 | 2984 ft | 205 kts | 263° |
| 2026-05-04 13:48 | 28.40028 | 113.21714 | 2991 ft | 200 kts | 227° |
| 2026-05-04 13:48 | 28.38864 | 113.20971 | 2990 ft | 195 kts | 182° |
| 2026-05-04 13:48 | 28.37514 | 113.21062 | 2988 ft | 194 kts | 171° |
| 2026-05-04 13:49 | 28.36178 | 113.21250 | 2992 ft | 194 kts | 173° |
| 2026-05-04 13:49 | 28.34851 | 113.21379 | 2935 ft | 193 kts | 175° |
| 2026-05-04 13:49 | 28.33552 | 113.21461 | 2714 ft | 183 kts | 175° |
| 2026-05-04 13:49 | 28.32323 | 113.21538 | 2446 ft | 171 kts | 175° |
| 2026-05-04 13:50 | 28.31181 | 113.21608 | 2205 ft | 159 kts | 175° |
| 2026-05-04 13:50 | 28.30112 | 113.21674 | 2015 ft | 147 kts | 175° |
| 2026-05-04 13:50 | 28.29140 | 113.21733 | 1832 ft | 134 kts | 175° |
| 2026-05-04 13:50 | 28.28185 | 113.21794 | 1650 ft | 139 kts | 175° |
| 2026-05-04 13:51 | 28.27223 | 113.21852 | 1464 ft | 137 kts | 175° |
| 2026-05-04 13:51 | 28.26292 | 113.21910 | 1310 ft | 133 kts | 175° |
| 2026-05-04 13:51 | 28.25360 | 113.21969 | 1156 ft | 140 kts | 175° |
| 2026-05-04 13:51 | 28.24367 | 113.22030 | 993 ft | 146 kts | 175° |
| 2026-05-04 13:52 | 28.22332 | 113.22160 | 558 ft | 144 kts | 176° |
| 2026-05-04 13:52 | 28.21339 | 113.22220 | 354 ft | 141 kts | 177° |
| 2026-05-04 13:52 | 28.20376 | 113.22275 | 219 ft | 133 kts | 177° |
| 2026-05-04 13:53 | 28.19716 | 113.22314 | 215 ft | 52 kts | 176° |
| 2026-05-04 13:53 | 28.19489 | 113.22328 | 215 ft | 25 kts | 177° |
| 2026-05-04 13:53 | 28.19360 | 113.22332 | 213 ft | 15 kts | 184° |
| 2026-05-04 13:54 | 28.19156 | 113.22279 | 218 ft | 11 kts | 205° |
| 2026-05-04 13:54 | 28.19102 | 113.22247 | 220 ft | 6 kts | 213° |
| 2026-05-04 13:54 | 28.19142 | 113.22159 | 214 ft | 12 kts | 356° |
| 2026-05-04 13:55 | 28.19228 | 113.22153 | 214 ft | 9 kts | 357° |
| 2026-05-04 13:55 | 28.19390 | 113.22143 | 219 ft | 12 kts | 356° |
| 2026-05-04 13:55 | 28.19463 | 113.22139 | 214 ft | 10 kts | 356° |
| 2026-05-04 13:56 | 28.19542 | 113.22134 | 214 ft | 13 kts | 357° |
| 2026-05-04 13:56 | 28.19642 | 113.22128 | 214 ft | 16 kts | 357° |
| 2026-05-04 13:56 | 28.19860 | 113.22114 | 214 ft | 16 kts | 357° |
| 2026-05-04 13:57 | 28.19966 | 113.22108 | 214 ft | 15 kts | 357° |
| 2026-05-04 13:57 | 28.20051 | 113.22099 | 214 ft | 12 kts | 341° |
| 2026-05-04 13:58 | 28.20071 | 113.21945 | 215 ft | 10 kts | 266° |
| 2026-05-04 13:58 | 28.20059 | 113.21733 | 220 ft | 17 kts | 266° |
| 2026-05-04 13:58 | 28.20050 | 113.21642 | 216 ft | 9 kts | 248° |
| 2026-05-04 13:59 | 28.19987 | 113.21623 | 217 ft | 11 kts | 176° |
| 2026-05-04 13:59 | 28.19903 | 113.21629 | 217 ft | 13 kts | 176° |
| 2026-05-04 13:59 | 28.19834 | 113.21591 | 213 ft | 3 kts | 261° |
| 2026-05-04 14:00 | 28.19831 | 113.21569 | 215 ft | 2 kts | 264° |
| 2026-05-04 14:00 | 28.19830 | 113.21555 | 213 ft | 0 kts | 264° |